Ora Direzione Vento Velocita' Vento Media Vento Raffica Max. Temperatura Wind Chill Pioggia Pressione
15:47:43.035 °(NE)5.4 Kts7.0 Kts24.9 Kts15.0 °C14.6 °C0.0 mm1022.5 Hpa
15:26:39.028 °(NNE)1.8 Kts2.5 Kts24.9 Kts15.7 °C15.7 °C0.0 mm1022.7 Hpa
15:07:26.0159 °(SSE)2.7 Kts1.2 Kts24.9 Kts15.1 °C15.1 °C0.0 mm1022.7 Hpa
14:46:15.0100 °(E)1.8 Kts1.6 Kts24.9 Kts14.7 °C14.7 °C0.0 mm1022.6 Hpa
14:27:03.0111 °(ESE)1.0 Kts1.6 Kts24.9 Kts14.6 °C14.6 °C0.0 mm1022.6 Hpa
14:05:40.0100 °(E)1.8 Kts1.0 Kts24.9 Kts14.3 °C14.3 °C0.0 mm1022.8 Hpa
13:46:34.0111 °(ESE)1.0 Kts1.4 Kts24.9 Kts13.7 °C13.7 °C0.0 mm1022.9 Hpa
13:26:50.065 °(ENE)1.0 Kts0.8 Kts24.9 Kts13.5 °C13.5 °C0.0 mm1023.1 Hpa
13:05:43.016 °(NNE)1.0 Kts1.2 Kts24.9 Kts12.8 °C12.8 °C0.0 mm1023.3 Hpa
12:46:48.054 °(NE)3.7 Kts4.3 Kts24.9 Kts12.6 °C12.3 °C0.0 mm1023.3 Hpa
12:27:40.092 °(E)1.8 Kts1.8 Kts24.9 Kts12.5 °C12.5 °C0.0 mm1023.8 Hpa
12:06:37.082 °(E)3.7 Kts3.1 Kts24.9 Kts12.3 °C11.9 °C0.0 mm1023.7 Hpa
11:47:22.0116 °(ESE)3.7 Kts2.7 Kts24.9 Kts11.9 °C11.5 °C0.0 mm1024.0 Hpa
11:26:20.049 °(NE)10.1 Kts6.8 Kts24.9 Kts11.4 °C9.3 °C0.0 mm1024.0 Hpa
11:07:16.037 °(NE)7.4 Kts9.1 Kts24.9 Kts11.3 °C9.7 °C0.0 mm1023.9 Hpa
10:46:10.032 °(NNE)12.1 Kts10.1 Kts24.9 Kts11.1 °C8.6 °C0.0 mm1024.1 Hpa
10:27:10.056 °(NE)14.8 Kts15.0 Kts24.9 Kts10.9 °C7.9 °C0.0 mm1024.0 Hpa
10:06:08.042 °(NE)12.8 Kts12.8 Kts24.9 Kts10.8 °C8.1 °C0.0 mm1023.8 Hpa
09:47:05.061 °(ENE)10.1 Kts12.1 Kts24.9 Kts10.7 °C8.4 °C0.0 mm1023.6 Hpa
09:26:00.052 °(NE)17.5 Kts18.7 Kts24.9 Kts10.4 °C6.9 °C0.0 mm1023.5 Hpa